createdAt,value
2018-11-02T00:01:08.745Z,97061.08
2018-11-02T00:03:36.021Z,97061.97
2018-11-02T00:06:03.231Z,97059.94
2018-11-02T00:08:30.449Z,97044.86
2018-11-02T00:10:57.600Z,97048.56
2018-11-02T00:13:24.807Z,97046.47
2018-11-02T00:15:52.000Z,97040.73
2018-11-02T00:18:19.224Z,97044.67
2018-11-02T00:20:46.496Z,97042.30
2018-11-02T00:23:13.690Z,97043.81
2018-11-02T00:25:40.872Z,97047.45
2018-11-02T00:28:08.084Z,97056.57
2018-11-02T00:30:35.264Z,97050.30
2018-11-02T00:33:02.492Z,97057.09
2018-11-02T00:35:29.697Z,97058.42
2018-11-02T00:37:56.933Z,97058.98
2018-11-02T00:40:24.124Z,97066.83
2018-11-02T00:42:51.291Z,97075.70
2018-11-02T00:45:18.489Z,97076.80
2018-11-02T00:47:45.690Z,97086.37
2018-11-02T00:50:12.860Z,97085.09
2018-11-02T00:52:40.094Z,97087.34
2018-11-02T00:55:07.966Z,97091.77
2018-11-02T00:57:35.137Z,97095.91
2018-11-02T01:00:02.609Z,97094.16
2018-11-02T01:02:29.798Z,97104.60
2018-11-02T01:04:57.209Z,97109.73
2018-11-02T01:07:24.356Z,97115.42
2018-11-02T01:09:51.557Z,97118.52
2018-11-02T01:12:18.742Z,97125.57
2018-11-02T01:14:45.948Z,97121.38
2018-11-02T01:17:13.096Z,97115.91
2018-11-02T01:19:40.265Z,97110.70
2018-11-02T01:22:07.428Z,97115.98
2018-11-02T01:24:34.591Z,97111.81
2018-11-02T01:27:01.775Z,97104.20
2018-11-02T01:29:29.631Z,97106.02
2018-11-02T01:31:57.142Z,97103.23
2018-11-02T01:34:24.486Z,97111.13
2018-11-02T01:36:51.794Z,97116.32
2018-11-02T01:39:18.908Z,97119.99
2018-11-02T01:41:46.145Z,97122.09
2018-11-02T01:44:13.399Z,97117.73
2018-11-02T01:46:40.619Z,97119.67
2018-11-02T01:49:08.128Z,97111.65
2018-11-02T01:51:35.276Z,97113.42
2018-11-02T01:54:02.465Z,97120.42
2018-11-02T01:56:29.683Z,97119.34
2018-11-02T01:58:57.176Z,97115.98
2018-11-02T02:01:24.399Z,97124.32
2018-11-02T02:03:51.865Z,97123.48
2018-11-02T02:06:19.048Z,97118.09
2018-11-02T02:08:46.216Z,97115.49
2018-11-02T02:11:13.472Z,97116.55
2018-11-02T02:13:40.639Z,97110.27
2018-11-02T02:16:07.800Z,97118.83
2018-11-02T02:18:35.011Z,97122.28
2018-11-02T02:21:02.218Z,97123.06
2018-11-02T02:23:29.409Z,97124.18
2018-11-02T02:25:56.576Z,97135.45
2018-11-02T02:28:23.779Z,97128.10
2018-11-02T02:30:50.920Z,97127.11
2018-11-02T02:33:18.103Z,97129.05
2018-11-02T02:35:45.337Z,97138.14
2018-11-02T02:38:12.552Z,97126.83
2018-11-02T02:40:39.757Z,97135.25
2018-11-02T02:43:06.913Z,97140.52
2018-11-02T02:45:34.116Z,97140.46
2018-11-02T02:48:01.317Z,97147.29
2018-11-02T02:50:28.507Z,97147.97
2018-11-02T02:52:55.629Z,97148.73
2018-11-02T02:55:22.777Z,97147.24
2018-11-02T02:57:50.017Z,97143.29
2018-11-02T03:00:17.183Z,97140.76
2018-11-02T03:02:44.407Z,97142.19
2018-11-02T03:05:11.881Z,97142.70
2018-11-02T03:07:39.553Z,97154.16
2018-11-02T03:10:07.135Z,97167.06
2018-11-02T03:12:34.296Z,97160.29
2018-11-02T03:15:01.536Z,97164.13
2018-11-02T03:17:28.691Z,97158.92
2018-11-02T03:19:55.899Z,97167.63
2018-11-02T03:22:23.248Z,97174.66
2018-11-02T03:24:50.311Z,97178.78
2018-11-02T03:27:17.481Z,97180.81
2018-11-02T03:29:44.732Z,97174.23
2018-11-02T03:32:11.951Z,97170.05
2018-11-02T03:34:39.180Z,97173.32
2018-11-02T03:37:06.330Z,97184.20
2018-11-02T03:39:33.523Z,97192.12
2018-11-02T03:42:00.696Z,97186.38
2018-11-02T03:44:27.899Z,97192.88
2018-11-02T03:46:55.119Z,97199.30
2018-11-02T03:49:22.254Z,97202.17
2018-11-02T03:51:49.448Z,97198.85
2018-11-02T03:54:16.600Z,97211.16
2018-11-02T03:56:43.842Z,97193.50
2018-11-02T03:59:11.404Z,97203.14
2018-11-02T04:01:38.552Z,97212.72
2018-11-02T04:04:05.847Z,97219.58
2018-11-02T04:06:33.236Z,97211.76
2018-11-02T04:09:00.412Z,97210.88
2018-11-02T04:11:27.644Z,97212.72
2018-11-02T04:13:54.798Z,97221.15
2018-11-02T04:16:22.049Z,97221.13
2018-11-02T04:18:49.226Z,97216.44
2018-11-02T04:21:16.436Z,97218.52
2018-11-02T04:23:43.667Z,97207.77
2018-11-02T04:26:10.788Z,97220.07
2018-11-02T04:28:37.971Z,97223.48
2018-11-02T04:31:05.167Z,97221.77
2018-11-02T04:33:32.350Z,97224.94
2018-11-02T04:35:59.570Z,97221.11
2018-11-02T04:38:26.712Z,97217.34
2018-11-02T04:40:54.716Z,97218.91
2018-11-02T04:43:21.892Z,97224.50
2018-11-02T04:45:49.186Z,97220.21
2018-11-02T04:48:16.481Z,97224.20
2018-11-02T04:50:43.721Z,97235.64
2018-11-02T04:53:10.839Z,97229.75
2018-11-02T04:55:38.014Z,97234.42
2018-11-02T04:58:05.199Z,97226.66
2018-11-02T05:00:32.332Z,97237.92
2018-11-02T05:02:59.741Z,97248.19
2018-11-02T05:05:27.336Z,97248.34
2018-11-02T05:07:54.495Z,97253.44
2018-11-02T05:10:21.706Z,97244.71
2018-11-02T05:12:49.174Z,97258.75
2018-11-02T05:15:16.360Z,97261.28
2018-11-02T05:17:43.532Z,97265.41
2018-11-02T05:20:10.932Z,97274.56
2018-11-02T05:22:38.315Z,97273.66
2018-11-02T05:25:05.880Z,97291.94
2018-11-02T05:27:33.120Z,97289.04
2018-11-02T05:30:00.232Z,97303.53
2018-11-02T05:32:27.408Z,97309.22
2018-11-02T05:34:54.579Z,97311.06
2018-11-02T05:37:21.716Z,97309.98
2018-11-02T05:39:48.911Z,97308.66
2018-11-02T05:42:16.092Z,97311.34
2018-11-02T05:44:43.187Z,97310.25
2018-11-02T05:47:10.367Z,97313.83
2018-11-02T05:49:37.504Z,97321.28
2018-11-02T05:52:04.768Z,97326.43
2018-11-02T05:54:31.939Z,97337.54
2018-11-02T05:56:59.232Z,97338.95
2018-11-02T05:59:26.364Z,97343.92
2018-11-02T06:01:53.579Z,97346.80
2018-11-02T06:04:20.826Z,97352.83
2018-11-02T06:06:47.975Z,97344.89
2018-11-02T06:09:15.124Z,97343.56
2018-11-02T06:11:42.313Z,97344.02
2018-11-02T06:14:09.455Z,97347.50
2018-11-02T06:16:36.683Z,97354.77
2018-11-02T06:19:03.797Z,97351.91
2018-11-02T06:21:31.011Z,97348.46
2018-11-02T06:23:58.155Z,97358.83
2018-11-02T06:26:25.268Z,97357.22
2018-11-02T06:28:52.409Z,97353.28
2018-11-02T06:31:19.594Z,97363.59
2018-11-02T06:33:46.729Z,97369.13
2018-11-02T06:36:13.868Z,97380.36
2018-11-02T06:38:41.063Z,97386.97
2018-11-02T06:41:08.224Z,97392.06
2018-11-02T06:43:35.385Z,97398.92
2018-11-02T06:46:02.604Z,97400.07
2018-11-02T06:48:29.780Z,97393.64
2018-11-02T06:50:57.069Z,97392.14
2018-11-02T06:53:24.145Z,97396.14
2018-11-02T06:55:51.329Z,97406.14
2018-11-02T06:58:18.520Z,97411.39
2018-11-02T07:00:45.724Z,97414.61
2018-11-02T07:03:12.907Z,97425.80
2018-11-02T07:05:40.090Z,97422.86
2018-11-02T07:08:07.411Z,97424.36
2018-11-02T07:10:34.484Z,97428.81
2018-11-02T07:13:01.711Z,97434.25
2018-11-02T07:15:28.846Z,97433.13
2018-11-02T07:17:56.059Z,97430.28
2018-11-02T07:20:23.280Z,97427.59
2018-11-02T07:22:50.455Z,97433.64
2018-11-02T07:25:17.734Z,97444.73
2018-11-02T07:27:44.812Z,97434.16
2018-11-02T07:30:12.081Z,97444.16
2018-11-02T07:32:39.528Z,97450.28
2018-11-02T07:35:07.254Z,97453.66
2018-11-02T07:37:34.525Z,97465.16
2018-11-02T07:40:01.810Z,97464.63
2018-11-02T07:42:29.006Z,97467.55
2018-11-02T07:44:56.163Z,97477.03
2018-11-02T07:47:23.318Z,97478.63
2018-11-02T07:49:50.471Z,97481.34
2018-11-02T07:52:17.648Z,97485.36
2018-11-02T07:54:44.876Z,97484.92
2018-11-02T07:57:12.080Z,97486.63
2018-11-02T07:59:39.264Z,97483.56
2018-11-02T08:02:06.489Z,97488.53
2018-11-02T08:04:33.749Z,97487.88
2018-11-02T08:07:00.955Z,97490.34
2018-11-02T08:09:28.101Z,97492.31
2018-11-02T08:11:55.263Z,97480.66
2018-11-02T08:14:22.481Z,97486.44
2018-11-02T08:16:49.630Z,97491.47
2018-11-02T08:19:16.856Z,97496.82
2018-11-02T08:21:44.013Z,97493.98
2018-11-02T08:24:11.429Z,97490.69
2018-11-02T08:26:38.587Z,97491.82
2018-11-02T08:29:05.776Z,97493.20
2018-11-02T08:31:32.921Z,97492.16
2018-11-02T08:34:00.122Z,97483.08
2018-11-02T08:36:27.317Z,97484.47
2018-11-02T08:38:54.472Z,97476.63
2018-11-02T08:41:21.655Z,97480.61
2018-11-02T08:43:48.831Z,97487.70
2018-11-02T08:46:22.909Z,97499.78
2018-11-02T08:48:50.272Z,97502.77
2018-11-02T08:51:17.416Z,97499.64
2018-11-02T08:53:44.590Z,97490.52
2018-11-02T08:56:11.772Z,97496.05
2018-11-02T08:58:39.100Z,97490.84
2018-11-02T09:01:06.126Z,97491.63
2018-11-02T09:03:33.257Z,97492.17
2018-11-02T09:06:00.413Z,97499.24
2018-11-02T09:08:27.601Z,97501.09
2018-11-02T09:10:54.723Z,97506.09
2018-11-02T09:13:21.936Z,97501.91
2018-11-02T09:15:49.161Z,97491.14
2018-11-02T09:18:16.396Z,97489.05
2018-11-02T09:20:43.564Z,97497.95
2018-11-02T09:23:10.808Z,97508.69
2018-11-02T09:25:37.978Z,97513.11
2018-11-02T09:28:05.644Z,97511.27
2018-11-02T09:30:34.803Z,97516.78
2018-11-02T09:33:02.038Z,97509.94
2018-11-02T09:35:29.281Z,97509.95
2018-11-02T09:37:56.512Z,97518.13
2018-11-02T09:40:23.777Z,97519.39
2018-11-02T09:42:51.284Z,97525.64
2018-11-02T09:45:18.197Z,97519.33
2018-11-02T09:47:45.454Z,97519.91
2018-11-02T09:50:12.916Z,97520.35
2018-11-02T09:52:40.279Z,97522.99
2018-11-02T09:55:09.557Z,97530.60
2018-11-02T09:57:36.888Z,97530.33
2018-11-02T10:00:04.444Z,97522.33
2018-11-02T10:02:31.738Z,97523.00
2018-11-02T10:04:59.024Z,97514.30
2018-11-02T10:07:26.220Z,97506.19
2018-11-02T10:09:53.414Z,97511.19
2018-11-02T10:12:21.647Z,97514.88
2018-11-02T10:14:48.890Z,97515.08
2018-11-02T10:17:16.377Z,97505.57
2018-11-02T10:19:43.576Z,97513.64
2018-11-02T10:22:10.829Z,97512.35
2018-11-02T10:24:38.121Z,97511.03
2018-11-02T10:27:05.439Z,97510.14
2018-11-02T10:29:32.733Z,97506.38
2018-11-02T10:31:59.977Z,97510.80
2018-11-02T10:34:27.217Z,97512.75
2018-11-02T10:36:54.496Z,97519.02
2018-11-02T10:39:21.704Z,97513.64
2018-11-02T10:41:51.133Z,97509.69
2018-11-02T10:44:25.660Z,97520.05
2018-11-02T10:46:52.788Z,97523.25
2018-11-02T10:49:20.027Z,97524.09
2018-11-02T10:51:47.189Z,97524.47
2018-11-02T10:54:14.456Z,97509.93
2018-11-02T10:56:41.758Z,97500.53
2018-11-02T10:59:08.947Z,97498.38
2018-11-02T11:01:41.869Z,97482.02
2018-11-02T11:04:09.114Z,97470.66
2018-11-02T11:06:36.373Z,97466.16
2018-11-02T11:09:07.086Z,97460.23
2018-11-02T11:11:34.395Z,97455.99
2018-11-02T11:14:01.544Z,97467.38
2018-11-02T11:16:28.765Z,97460.39
2018-11-02T11:18:56.042Z,97463.13
2018-11-02T11:21:23.307Z,97466.66
2018-11-02T11:23:50.408Z,97457.27
2018-11-02T11:26:17.656Z,97451.81
2018-11-02T11:28:44.981Z,97445.45
2018-11-02T11:31:12.222Z,97443.98
2018-11-02T11:33:39.549Z,97436.95
2018-11-02T11:36:06.804Z,97439.25
2018-11-02T11:38:34.416Z,97440.13
2018-11-02T11:41:01.693Z,97438.64
2018-11-02T11:43:28.957Z,97440.37
2018-11-02T11:45:56.175Z,97440.46
2018-11-02T11:48:23.391Z,97447.10
2018-11-02T11:50:50.663Z,97451.27
2018-11-02T11:53:17.892Z,97449.56
2018-11-02T11:55:45.148Z,97451.17
2018-11-02T11:58:12.384Z,97444.05
2018-11-02T12:00:39.637Z,97435.47
2018-11-02T12:03:06.854Z,97434.55
2018-11-02T12:05:34.031Z,97431.84
2018-11-02T12:08:01.280Z,97411.92
2018-11-02T12:10:28.514Z,97429.57
2018-11-02T12:12:55.726Z,97452.22
2018-11-02T12:15:23.419Z,97466.52
2018-11-02T12:17:50.977Z,97471.31
2018-11-02T12:20:22.533Z,97459.57
2018-11-02T12:22:51.170Z,97451.23
2018-11-02T12:25:18.420Z,97455.80
2018-11-02T12:27:45.654Z,97451.70
2018-11-02T12:30:14.841Z,97449.84
2018-11-02T12:32:42.268Z,97444.20
2018-11-02T12:35:11.314Z,97433.88
2018-11-02T12:37:38.627Z,97433.41
2018-11-02T12:40:07.503Z,97427.16
2018-11-02T12:42:35.015Z,97441.25
2018-11-02T12:45:02.587Z,97451.84
2018-11-02T12:47:29.719Z,97459.88
2018-11-02T12:49:57.016Z,97453.09
2018-11-02T12:52:24.208Z,97433.47
2018-11-02T12:54:51.429Z,97429.84
2018-11-02T12:57:18.598Z,97424.50
2018-11-02T12:59:46.065Z,97426.61
2018-11-02T13:02:13.405Z,97428.47
2018-11-02T13:04:40.811Z,97422.27
2018-11-02T13:07:08.060Z,97420.80
2018-11-02T13:09:35.199Z,97420.55
2018-11-02T13:12:02.434Z,97420.13
2018-11-02T13:14:29.619Z,97413.75
2018-11-02T13:16:56.968Z,97424.50
2018-11-02T13:19:24.187Z,97432.84
2018-11-02T13:21:51.633Z,97432.23
2018-11-02T13:24:18.627Z,97427.79
2018-11-02T13:26:45.984Z,97443.83
2018-11-02T13:29:13.194Z,97448.48
2018-11-02T13:31:40.457Z,97454.12
2018-11-02T13:34:07.732Z,97446.09
2018-11-02T13:36:35.037Z,97445.18
2018-11-02T13:39:02.158Z,97449.11
2018-11-02T13:41:29.437Z,97441.57
2018-11-02T13:43:56.653Z,97441.98
2018-11-02T13:46:23.826Z,97437.30
2018-11-02T13:48:51.078Z,97434.16
2018-11-02T13:51:18.512Z,97434.03
2018-11-02T13:53:45.859Z,97439.02
2018-11-02T13:56:13.168Z,97441.98
2018-11-02T13:58:40.583Z,97442.42
2018-11-02T14:01:07.885Z,97445.88
2018-11-02T14:03:35.221Z,97448.57
2018-11-02T14:06:02.439Z,97449.29
2018-11-02T14:08:29.971Z,97445.08
2018-11-02T14:10:57.235Z,97450.31
2018-11-02T14:13:24.714Z,97463.44
2018-11-02T14:15:51.925Z,97463.44
2018-11-02T14:18:25.968Z,97463.84
2018-11-02T14:20:53.185Z,97475.96
2018-11-02T14:23:20.409Z,97479.73
2018-11-02T14:25:47.844Z,97471.21
2018-11-02T14:28:15.113Z,97470.83
2018-11-02T14:30:42.329Z,97463.61
2018-11-02T14:33:09.565Z,97473.86
2018-11-02T14:35:36.785Z,97479.79
2018-11-02T14:38:04.314Z,97473.48
2018-11-02T14:40:31.532Z,97473.09
2018-11-02T14:42:58.725Z,97485.63
2018-11-02T14:45:26.290Z,97488.09
2018-11-02T14:47:53.468Z,97489.84
2018-11-02T14:50:20.788Z,97492.31
2018-11-02T14:52:47.974Z,97488.08
2018-11-02T14:55:15.180Z,97496.06
2018-11-02T14:57:42.403Z,97508.36
2018-11-02T15:00:10.733Z,97509.73
2018-11-02T15:02:38.320Z,97507.15
2018-11-02T15:18:05.567Z,97504.08
2018-11-02T15:20:32.790Z,97502.33
2018-11-02T15:23:00.030Z,97505.02
2018-11-02T15:25:27.302Z,97493.00
2018-11-02T15:27:54.474Z,97495.16
2018-11-02T15:30:21.756Z,97485.75
2018-11-02T15:32:49.029Z,97475.80
2018-11-02T15:35:16.257Z,97475.31
2018-11-02T15:37:43.699Z,97472.75
2018-11-02T15:40:11.926Z,97462.67
2018-11-02T15:42:39.171Z,97459.36
2018-11-02T15:45:08.537Z,97468.84
2018-11-02T15:47:35.792Z,97481.80
2018-11-02T15:50:03.675Z,97488.35
2018-11-02T15:52:30.914Z,97492.37
2018-11-02T15:54:58.186Z,97496.92
2018-11-02T15:57:25.711Z,97500.09
2018-11-02T15:59:52.941Z,97507.63
2018-11-02T16:02:20.193Z,97514.03
2018-11-02T16:04:47.411Z,97520.26
2018-11-02T16:07:14.990Z,97525.77
2018-11-02T16:09:42.333Z,97539.20
2018-11-02T16:12:09.618Z,97542.20
2018-11-02T16:14:36.801Z,97551.59
2018-11-02T16:17:04.516Z,97546.16
2018-11-02T16:19:31.738Z,97545.88
2018-11-02T16:21:59.068Z,97548.55
2018-11-02T16:24:26.297Z,97548.50
2018-11-02T16:26:53.503Z,97559.36
2018-11-02T16:29:20.756Z,97568.23
2018-11-02T16:31:47.918Z,97583.83
2018-11-02T16:34:15.138Z,97590.25
2018-11-02T16:36:42.547Z,97592.20
2018-11-02T16:39:11.110Z,97597.55
2018-11-02T16:41:38.977Z,97603.86
2018-11-02T16:44:06.439Z,97597.65
2018-11-02T16:46:33.632Z,97601.70
2018-11-02T16:49:00.856Z,97612.05
2018-11-02T16:51:28.052Z,97624.49
2018-11-02T16:53:55.309Z,97625.92
2018-11-02T16:56:22.518Z,97616.41
2018-11-02T16:58:49.754Z,97629.16
2018-11-02T17:01:16.914Z,97636.69
2018-11-02T17:03:44.180Z,97628.53
2018-11-02T17:06:11.471Z,97633.41
2018-11-02T17:08:38.627Z,97637.98
2018-11-02T17:11:05.865Z,97638.30
2018-11-02T17:13:33.100Z,97645.67
2018-11-02T17:16:00.322Z,97645.14
2018-11-02T17:18:27.641Z,97652.95
2018-11-02T17:20:54.742Z,97656.97
2018-11-02T17:23:21.968Z,97659.92
2018-11-02T17:25:49.407Z,97673.33
2018-11-02T17:28:16.730Z,97672.58
2018-11-02T17:30:44.003Z,97685.98
2018-11-02T17:33:11.213Z,97687.93
2018-11-02T17:35:38.419Z,97691.92
2018-11-02T17:38:05.713Z,97694.77
2018-11-02T17:40:32.920Z,97695.83
2018-11-02T17:43:00.116Z,97693.23
2018-11-02T17:45:27.320Z,97697.75
2018-11-02T17:47:54.562Z,97695.03
2018-11-02T17:50:21.893Z,97706.34
2018-11-02T17:52:49.101Z,97700.17
2018-11-02T17:55:16.276Z,97706.95
2018-11-02T17:57:43.530Z,97712.88
2018-11-02T18:00:12.077Z,97707.72
2018-11-02T18:02:39.445Z,97709.06
2018-11-02T18:05:07.583Z,97708.28
2018-11-02T18:07:34.908Z,97712.73
2018-11-02T18:10:02.656Z,97715.29
2018-11-02T18:12:29.893Z,97715.83
2018-11-02T18:14:57.111Z,97722.33
2018-11-02T18:17:24.363Z,97727.69
2018-11-02T18:19:51.629Z,97725.36
2018-11-02T18:22:18.961Z,97723.58
2018-11-02T18:24:46.131Z,97723.58
2018-11-02T18:27:13.517Z,97714.28
2018-11-02T18:29:41.454Z,97710.38
2018-11-02T18:32:08.753Z,97709.65
2018-11-02T18:34:36.232Z,97703.82
2018-11-02T18:37:03.541Z,97703.18
2018-11-02T18:39:30.869Z,97700.34
2018-11-02T18:41:58.336Z,97709.27
2018-11-02T18:44:25.689Z,97706.91
2018-11-02T18:46:53.030Z,97714.03
2018-11-02T18:49:20.616Z,97703.77
2018-11-02T18:51:48.005Z,97705.81
2018-11-02T18:54:15.343Z,97720.11
2018-11-02T18:56:42.610Z,97723.83
2018-11-02T18:59:10.053Z,97725.94
2018-11-02T19:01:37.296Z,97731.72
2018-11-02T19:04:05.005Z,97728.19
2018-11-02T19:06:32.290Z,97729.11
2018-11-02T19:08:59.537Z,97736.57
2018-11-02T19:11:26.845Z,97740.90
2018-11-02T19:13:54.177Z,97745.39
2018-11-02T19:16:21.434Z,97738.62
2018-11-02T19:18:48.640Z,97736.54
2018-11-02T19:21:15.973Z,97730.80
2018-11-02T19:23:43.172Z,97735.30
2018-11-02T19:26:10.429Z,97729.03
2018-11-02T19:28:37.725Z,97733.52
2018-11-02T19:31:05.061Z,97734.05
2018-11-02T19:33:32.396Z,97744.56
2018-11-02T19:35:59.745Z,97748.24
2018-11-02T19:38:26.989Z,97750.11
2018-11-02T19:40:54.138Z,97748.28
2018-11-02T19:43:21.348Z,97744.63
2018-11-02T19:45:48.627Z,97752.53
2018-11-02T19:48:15.939Z,97763.00
2018-11-02T19:50:43.326Z,97766.63
2018-11-02T19:53:10.461Z,97762.22
2018-11-02T19:55:37.779Z,97758.69
2018-11-02T19:58:05.048Z,97764.42
2018-11-02T20:00:32.201Z,97766.71
2018-11-02T20:02:59.430Z,97760.41
2018-11-02T20:05:26.659Z,97753.35
2018-11-02T20:07:54.076Z,97746.48
2018-11-02T20:10:21.329Z,97743.99
2018-11-02T20:12:48.606Z,97734.63
2018-11-02T20:15:16.517Z,97740.45
2018-11-02T20:17:43.837Z,97745.55
2018-11-02T20:20:12.192Z,97751.63
2018-11-02T20:22:39.646Z,97762.40
2018-11-02T20:25:08.469Z,97763.21
2018-11-02T20:27:35.713Z,97763.51
2018-11-02T20:30:03.204Z,97765.33
2018-11-02T20:32:30.529Z,97764.77
2018-11-02T20:34:57.711Z,97755.95
2018-11-02T20:37:25.014Z,97753.58
2018-11-02T20:39:52.260Z,97754.84
2018-11-02T20:42:19.546Z,97758.53
2018-11-02T20:44:46.792Z,97766.70
2018-11-02T20:47:14.006Z,97757.00
2018-11-02T20:49:41.204Z,97766.45
2018-11-02T20:52:08.642Z,97762.50
2018-11-02T20:54:35.842Z,97769.05
2018-11-02T20:57:03.100Z,97774.77
2018-11-02T20:59:30.367Z,97766.64
2018-11-02T21:01:57.693Z,97767.98
2018-11-02T21:04:25.012Z,97769.61
2018-11-02T21:06:52.315Z,97758.31
2018-11-02T21:09:20.014Z,97763.81
2018-11-02T21:11:46.922Z,97769.67
2018-11-02T21:14:14.168Z,97769.96
2018-11-02T21:16:41.454Z,97762.89
2018-11-02T21:19:08.672Z,97770.55
2018-11-02T21:21:36.157Z,97769.73
2018-11-02T21:24:03.393Z,97760.00
2018-11-02T21:26:30.644Z,97761.70
2018-11-02T21:28:57.962Z,97763.75
2018-11-02T21:31:25.560Z,97758.97
2018-11-02T21:33:52.898Z,97749.20
2018-11-02T21:36:20.011Z,97749.14
2018-11-02T21:38:47.387Z,97745.98
2018-11-02T21:41:14.639Z,97752.37
2018-11-02T21:43:42.053Z,97748.64
2018-11-02T21:46:09.383Z,97750.77
2018-11-02T21:48:36.716Z,97740.71
2018-11-02T21:51:04.308Z,97749.98
2018-11-02T21:53:31.631Z,97759.43
2018-11-02T21:55:58.989Z,97755.75
2018-11-02T21:58:26.311Z,97758.11
2018-11-02T22:00:53.596Z,97756.81
2018-11-02T22:03:21.097Z,97759.94
2018-11-02T22:05:48.369Z,97766.30
2018-11-02T22:08:15.611Z,97764.79
2018-11-02T22:10:42.838Z,97765.59
2018-11-02T22:13:10.032Z,97762.23
2018-11-02T22:15:38.043Z,97767.76
2018-11-02T22:18:05.368Z,97768.36
2018-11-02T22:20:32.558Z,97785.92
2018-11-02T22:22:59.819Z,97792.80
2018-11-02T22:25:27.023Z,97794.62
2018-11-02T22:27:54.256Z,97801.56
2018-11-02T22:30:21.576Z,97800.50
2018-11-02T22:32:48.835Z,97797.91
2018-11-02T22:35:16.188Z,97802.34
2018-11-02T22:37:43.809Z,97809.43
2018-11-02T22:40:12.093Z,97819.00
2018-11-02T22:42:39.874Z,97821.42
2018-11-02T22:45:07.609Z,97818.56
2018-11-02T22:47:34.877Z,97817.00
2018-11-02T22:50:02.115Z,97812.27
2018-11-02T22:52:29.323Z,97820.13
2018-11-02T22:54:56.536Z,97817.29
2018-11-02T22:57:23.682Z,97812.83
2018-11-02T22:59:50.902Z,97816.25
2018-11-02T23:02:18.148Z,97821.77
2018-11-02T23:04:45.439Z,97824.16
2018-11-02T23:07:12.723Z,97818.11
2018-11-02T23:09:39.901Z,97806.51
2018-11-02T23:12:07.155Z,97816.52
2018-11-02T23:14:34.350Z,97820.99
2018-11-02T23:17:01.542Z,97816.78
2018-11-02T23:19:29.116Z,97817.84
2018-11-02T23:21:56.260Z,97820.73
2018-11-02T23:24:23.456Z,97815.73
2018-11-02T23:26:50.720Z,97813.09
2018-11-02T23:29:17.930Z,97807.05
2018-11-02T23:31:45.550Z,97810.75
2018-11-02T23:34:12.718Z,97816.54
2018-11-02T23:36:39.928Z,97804.73
2018-11-02T23:39:07.908Z,97806.02
2018-11-02T23:41:35.160Z,97813.65
2018-11-02T23:44:02.382Z,97813.93
2018-11-02T23:46:29.610Z,97818.41
2018-11-02T23:48:56.834Z,97814.40
2018-11-02T23:51:24.144Z,97813.48
2018-11-02T23:53:51.392Z,97802.68
2018-11-02T23:56:18.653Z,97801.34
2018-11-02T23:58:45.828Z,97807.74
